Weather at Milan Bergamo Airport / Antonio Locatelli Air Base

Public forecast

Using degrees Celsius for public forecast. Weather courtesy of forecast.io.

Current aviation weather report (METAR) for Milan Bergamo Airport / Antonio Locatelli Air Base

2024/06/19 06:50 (retrieved 17 minutes ago)

LIME 190650Z VRB02KT CAVOK 25/17 Q1016 NOSIG

Aviation forecast (TAF) for Milan Bergamo Airport / Antonio Locatelli Air Base

2024/06/19 06:21 (retrieved 46 minutes ago)

TAF LIME 190500Z 1906/2006 VRB05KT 9999 FEW050